Time;durP1;ratioP1;P1;durP2;ratioP2;P2;SDS_P1;SDS_P2;PMS_P1;PMS_P2;Temp;Humidity;BMP_temperature;BMP_pressure;BME280_temperature;BME280_humidity;BME280_pressure;Samples;Min_cycle;Max_cycle;Signal;HPM_P1;HPM_P2
2023/04/18 00:02:15;;;;;;;;;73.00;57.00;;;;;11.50;100.00;102097.28;4997309;28;46811;-69
2023/04/18 00:04:41;;;;;;;;;66.25;52.25;;;;;11.31;100.00;102116.91;4999074;28;45272;-69
2023/04/18 00:07:07;;;;;;;;;69.50;54.25;;;;;11.31;100.00;102100.59;4996483;28;45415;-69
2023/04/18 00:09:32;;;;;;;;;70.50;57.50;;;;;11.09;100.00;102110.53;5003433;28;45602;-69
2023/04/18 00:11:57;;;;;;;;;67.25;54.50;;;;;11.26;100.00;102107.34;4994730;28;47298;-69
2023/04/18 00:14:23;;;;;;;;;71.25;54.75;;;;;11.10;100.00;102096.81;5002515;28;45379;-69
2023/04/18 00:16:48;;;;;;;;;70.50;52.75;;;;;11.05;100.00;102111.75;4996793;28;45321;-69
2023/04/18 00:19:14;;;;;;;;;82.25;63.50;;;;;11.31;100.00;102105.16;5003156;28;45193;-69
2023/04/18 00:21:43;;;;;;;;;73.75;56.25;;;;;11.39;100.00;102102.72;4998468;28;45844;-69
2023/04/18 00:24:09;;;;;;;;;76.75;60.50;;;;;11.53;100.00;102094.31;5002431;28;45346;-69
2023/04/18 00:26:34;;;;;;;;;75.75;59.25;;;;;11.22;100.00;102100.44;4999688;28;45552;-68
2023/04/18 00:29:01;;;;;;;;;74.50;58.25;;;;;11.43;100.00;102097.88;5002351;28;45600;-69
2023/04/18 00:31:27;;;;;;;;;77.00;58.00;;;;;11.55;100.00;102097.75;5003986;28;47196;-70
2023/04/18 00:33:52;;;;;;;;;74.00;57.50;;;;;11.59;100.00;102099.28;5001198;28;45445;-69
2023/04/18 00:36:17;;;;;;;;;77.50;63.50;;;;;11.54;100.00;102101.47;5000317;28;45624;-69
2023/04/18 00:38:43;;;;;;;;;76.25;59.75;;;;;11.53;100.00;102099.75;5002577;28;45318;-69
2023/04/18 00:41:08;;;;;;;;;68.75;52.50;;;;;11.52;100.00;102081.69;4998345;28;45591;-69
2023/04/18 00:43:34;;;;;;;;;79.00;59.00;;;;;11.49;100.00;102091.94;4998326;28;45431;-69
2023/04/18 00:46:00;;;;;;;;;80.50;58.25;;;;;11.58;100.00;102086.63;4999249;28;45323;-69
2023/04/18 00:48:26;;;;;;;;;76.00;59.50;;;;;11.58;100.00;102086.63;5002521;28;45248;-69
2023/04/18 00:50:52;;;;;;;;;73.25;58.75;;;;;11.55;100.00;102075.97;4998830;28;48220;-69
2023/04/18 00:53:18;;;;;;;;;80.75;59.25;;;;;11.58;100.00;102075.75;4997735;28;45391;-69
2023/04/18 00:55:43;;;;;;;;;76.25;58.75;;;;;10.92;100.00;102082.78;5032034;28;45415;-69
2023/04/18 00:58:09;;;;;;;;;76.00;59.00;;;;;11.44;100.00;102086.88;4998671;28;45581;-69
2023/04/18 01:00:34;;;;;;;;;76.25;58.75;;;;;11.53;100.00;102069.81;5000452;28;46069;-68
2023/04/18 01:02:59;;;;;;;;;80.25;57.75;;;;;10.95;100.00;102072.66;4996781;28;45439;-69
2023/04/18 01:05:25;;;;;;;;;75.75;58.75;;;;;10.86;100.00;102085.97;4999549;28;45662;-68
2023/04/18 01:07:51;;;;;;;;;77.50;58.00;;;;;10.80;100.00;102080.16;4992813;28;45272;-68
2023/04/18 01:10:17;;;;;;;;;76.00;59.00;;;;;10.84;100.00;102077.06;4999783;28;46449;-69
2023/04/18 01:12:42;;;;;;;;;83.00;65.75;;;;;10.80;100.00;102072.88;5028782;28;45420;-69
2023/04/18 01:15:08;;;;;;;;;74.00;59.50;;;;;10.70;100.00;102060.94;5000963;28;45248;-69
2023/04/18 01:17:34;;;;;;;;;70.00;54.75;;;;;10.77;100.00;102074.94;4997912;28;45638;-69
2023/04/18 01:20:00;;;;;;;;;84.00;65.50;;;;;10.74;100.00;102072.47;5001648;28;45776;-69
2023/04/18 01:22:27;;;;;;;;;81.50;63.50;;;;;11.05;100.00;102070.94;4997520;28;45417;-69
2023/04/18 01:24:52;;;;;;;;;78.25;58.25;;;;;11.10;100.00;102052.44;5002229;28;45460;-69
2023/04/18 01:27:18;;;;;;;;;72.50;57.50;;;;;11.11;100.00;102051.41;4998536;28;45488;-69
2023/04/18 01:29:43;;;;;;;;;78.25;58.50;;;;;11.23;100.00;102058.66;5001447;28;45472;-69
2023/04/18 01:32:09;;;;;;;;;71.50;57.00;;;;;11.10;100.00;102045.16;4999395;28;45466;-69
2023/04/18 01:34:34;;;;;;;;;74.75;57.25;;;;;11.05;100.00;102043.75;5001569;28;45375;-69
2023/04/18 01:36:59;;;;;;;;;77.75;60.00;;;;;11.25;100.00;102060.22;5011591;28;45350;-69
2023/04/18 01:39:25;;;;;;;;;82.75;58.25;;;;;10.87;100.00;102054.22;5001125;28;46230;-70
2023/04/18 01:41:50;;;;;;;;;79.50;61.25;;;;;10.76;100.00;102049.59;5027595;28;45512;-69
2023/04/18 01:44:15;;;;;;;;;76.25;59.75;;;;;11.14;100.00;102049.34;5001502;28;49038;-68
2023/04/18 01:46:41;;;;;;;;;75.25;58.25;;;;;11.28;100.00;102045.53;5017681;28;45357;-69
2023/04/18 01:49:07;;;;;;;;;81.00;62.00;;;;;11.22;100.00;102046.03;5004936;28;45315;-70
2023/04/18 01:51:32;;;;;;;;;72.25;55.25;;;;;11.10;100.00;102047.00;5002344;28;45434;-69
2023/04/18 01:53:57;;;;;;;;;78.25;60.00;;;;;10.99;100.00;102044.22;5017725;28;45677;-69
2023/04/18 01:56:23;;;;;;;;;75.75;58.75;;;;;10.89;100.00;102039.50;5000963;28;45597;-70
2023/04/18 01:58:48;;;;;;;;;78.75;59.25;;;;;10.99;100.00;102046.94;5003617;28;46437;-69
2023/04/18 02:01:13;;;;;;;;;77.25;57.50;;;;;10.98;100.00;102047.94;5014953;28;45617;-69
2023/04/18 02:03:39;;;;;;;;;82.75;64.00;;;;;10.89;100.00;102052.22;5001319;28;45363;-69
2023/04/18 02:06:05;;;;;;;;;76.00;59.50;;;;;10.50;100.00;102048.00;5022949;28;45381;-70
2023/04/18 02:08:34;;;;;;;;;81.50;61.75;;;;;10.42;100.00;102045.00;5019953;28;47429;-69
2023/04/18 02:11:00;;;;;;;;;78.50;60.50;;;;;10.82;100.00;102049.13;4999001;28;45404;-69
2023/04/18 02:13:25;;;;;;;;;81.75;59.00;;;;;10.84;100.00;102040.84;5018957;28;45383;-70
2023/04/18 02:15:50;;;;;;;;;74.50;56.75;;;;;10.83;100.00;102039.13;5000605;28;45645;-70
2023/04/18 02:18:17;;;;;;;;;80.75;57.75;;;;;10.81;100.00;102032.94;5001314;28;47259;-69
2023/04/18 02:20:42;;;;;;;;;80.75;60.00;;;;;10.83;100.00;102039.13;5002256;28;45770;-69
2023/04/18 02:23:07;;;;;;;;;74.75;58.75;;;;;10.84;100.00;102036.28;5002183;28;45525;-69
2023/04/18 02:25:33;;;;;;;;;76.75;58.00;;;;;10.69;100.00;102042.91;5003088;28;45496;-69
2023/04/18 02:27:58;;;;;;;;;83.50;69.25;;;;;10.49;100.00;102035.41;5002399;28;45390;-69
2023/04/18 02:30:24;;;;;;;;;75.50;57.25;;;;;10.46;100.00;102036.50;5002807;28;45557;-69
2023/04/18 02:32:51;;;;;;;;;84.25;61.50;;;;;10.48;100.00;102028.25;5017992;28;45352;-69
2023/04/18 02:35:16;;;;;;;;;84.75;66.75;;;;;10.66;100.00;102040.44;5002913;28;45444;-69
2023/04/18 02:37:42;;;;;;;;;80.75;61.00;;;;;10.77;100.00;102032.31;5001015;28;46164;-69
2023/04/18 02:40:08;;;;;;;;;85.50;66.25;;;;;10.75;100.00;102031.56;5002822;28;45271;-69
2023/04/18 02:42:33;;;;;;;;;80.25;60.75;;;;;10.53;100.00;102035.03;5001218;28;45419;-69
2023/04/18 02:44:58;;;;;;;;;74.75;58.50;;;;;10.39;100.00;102023.50;5004363;28;45685;-69
2023/04/18 02:47:24;;;;;;;;;85.75;64.25;;;;;10.49;100.00;102029.97;5013044;28;50144;-69
2023/04/18 02:49:49;;;;;;;;;86.50;66.75;;;;;10.61;100.00;102023.59;5002684;28;45406;-69
2023/04/18 02:52:15;;;;;;;;;77.25;58.75;;;;;10.68;100.00;102019.41;5028302;28;45482;-69
2023/04/18 02:54:40;;;;;;;;;78.50;60.50;;;;;10.58;100.00;102018.41;5004550;28;45450;-69
2023/04/18 02:57:05;;;;;;;;;77.50;60.25;;;;;10.58;100.00;102010.25;5008467;28;47440;-69
2023/04/18 02:59:32;;;;;;;;;76.50;59.25;;;;;10.74;100.00;102012.66;5002278;28;45428;-69
2023/04/18 03:01:57;;;;;;;;;76.00;59.75;;;;;10.53;100.00;102016.03;4997137;28;45312;-69
2023/04/18 03:04:23;;;;;;;;;79.25;59.75;;;;;10.51;100.00;102025.31;5004248;28;45415;-69
2023/04/18 03:06:48;;;;;;;;;82.25;64.00;;;;;10.45;100.00;102013.03;4997313;28;46522;-69
2023/04/18 03:09:14;;;;;;;;;82.00;63.00;;;;;10.59;100.00;102003.84;5035840;28;45201;-70
2023/04/18 03:11:39;;;;;;;;;82.00;62.00;;;;;10.62;100.00;102030.75;4996041;28;45491;-69
2023/04/18 03:14:05;;;;;;;;;85.00;63.00;;;;;10.59;100.00;102027.44;5003950;28;45679;-69
2023/04/18 03:16:31;;;;;;;;;76.75;59.00;;;;;10.69;100.00;102021.16;4997915;28;45417;-70
2023/04/18 03:18:56;;;;;;;;;79.25;62.50;;;;;10.33;100.00;102002.22;5003805;28;45300;-69
2023/04/18 03:21:21;;;;;;;;;82.50;60.50;;;;;10.63;100.00;102010.75;4999642;28;45228;-69
2023/04/18 03:23:47;;;;;;;;;81.25;63.25;;;;;10.25;100.00;102007.38;5013918;28;45538;-70
2023/04/18 03:26:12;;;;;;;;;84.25;71.00;;;;;10.49;100.00;102006.38;4997811;28;46332;-70
2023/04/18 03:28:38;;;;;;;;;83.00;58.25;;;;;10.31;100.00;101998.75;5002396;28;45237;-69
2023/04/18 03:31:04;;;;;;;;;82.25;62.50;;;;;10.40;100.00;102025.22;5001431;28;45501;-69
2023/04/18 03:33:29;;;;;;;;;82.25;61.25;;;;;10.42;100.00;102012.41;5002178;28;45542;-70
2023/04/18 03:35:54;;;;;;;;;81.25;62.75;;;;;10.51;100.00;102015.31;5016161;28;46533;-69
2023/04/18 03:38:20;;;;;;;;;83.00;62.75;;;;;10.48;100.00;102010.09;4995471;28;45426;-69
2023/04/18 03:40:45;;;;;;;;;81.25;63.75;;;;;10.47;100.00;102015.63;5001309;28;45478;-69
2023/04/18 03:43:11;;;;;;;;;82.50;61.25;;;;;9.76;100.00;102032.72;4995667;28;45594;-70
2023/04/18 03:45:36;;;;;;;;;85.00;62.75;;;;;9.61;100.00;102026.56;5017009;28;46237;-69
2023/04/18 03:48:01;;;;;;;;;84.25;61.25;;;;;10.13;100.00;102018.16;4988698;28;45663;-69
2023/04/18 03:50:27;;;;;;;;;82.00;60.00;;;;;9.61;100.00;102025.69;4997996;28;45824;-69
2023/04/18 03:52:52;;;;;;;;;82.00;65.75;;;;;9.52;100.00;102020.91;4997720;28;45442;-69
2023/04/18 03:55:19;;;;;;;;;86.00;62.75;;;;;9.54;100.00;102024.38;5000546;28;45458;-69
2023/04/18 03:57:44;;;;;;;;;81.75;62.75;;;;;9.51;100.00;102032.75;5013453;28;45468;-69
2023/04/18 04:00:11;;;;;;;;;78.00;59.75;;;;;9.51;100.00;102024.59;5017368;28;45683;-68
2023/04/18 04:02:37;;;;;;;;;83.50;62.00;;;;;9.52;100.00;102015.47;5015081;28;45433;-68
2023/04/18 04:05:03;;;;;;;;;82.25;62.00;;;;;9.50;100.00;102022.84;5002574;28;45412;-70
2023/04/18 04:07:29;;;;;;;;;83.75;66.25;;;;;9.48;100.00;102020.28;4999811;28;45374;-68
2023/04/18 04:09:54;;;;;;;;;75.50;58.75;;;;;9.48;100.00;102014.84;5002872;28;45345;-69
2023/04/18 04:12:19;;;;;;;;;88.00;69.50;;;;;9.45;100.00;102014.19;4997036;28;45753;-69
2023/04/18 04:14:45;;;;;;;;;83.75;65.25;;;;;9.41;100.00;102016.28;5002432;28;45489;-68
2023/04/18 04:17:10;;;;;;;;;84.75;67.00;;;;;9.37;100.00;102017.47;4993930;28;45375;-69
2023/04/18 04:19:35;;;;;;;;;82.25;64.25;;;;;9.44;100.00;102012.44;4999312;28;45459;-71
2023/04/18 04:22:01;;;;;;;;;76.25;56.50;;;;;9.47;100.00;102014.97;4999107;28;45440;-71
2023/04/18 04:24:27;;;;;;;;;83.75;61.25;;;;;9.40;100.00;102013.66;5033924;28;47269;-70
2023/04/18 04:26:53;;;;;;;;;76.75;60.50;;;;;9.40;100.00;102011.81;4999837;28;47682;-70
2023/04/18 04:29:20;;;;;;;;;81.25;67.00;;;;;9.45;100.00;102012.34;5001973;28;45351;-70
2023/04/18 04:31:45;;;;;;;;;84.50;66.00;;;;;9.38;100.00;102014.66;4995586;28;45276;-70
2023/04/18 04:34:11;;;;;;;;;93.50;82.25;;;;;9.41;100.00;102018.13;5034343;28;45377;-70
2023/04/18 04:36:36;;;;;;;;;80.50;62.25;;;;;9.45;100.00;102014.19;4999675;28;45490;-71
2023/04/18 04:39:04;;;;;;;;;84.75;65.50;;;;;9.45;100.00;102009.63;5018189;28;45483;-70
2023/04/18 04:41:30;;;;;;;;;87.00;68.50;;;;;9.38;100.00;102014.66;4996373;28;45432;-69
2023/04/18 04:43:55;;;;;;;;;79.75;61.00;;;;;9.45;100.00;102004.22;5033562;28;47046;-68
2023/04/18 04:46:21;;;;;;;;;79.25;61.75;;;;;9.52;100.00;102015.47;4997899;28;45401;-69
2023/04/18 04:48:48;;;;;;;;;83.75;63.50;;;;;9.48;100.00;102008.56;5003178;28;45415;-70
2023/04/18 04:51:14;;;;;;;;;89.00;68.75;;;;;9.50;100.00;102007.44;4992924;28;45329;-69
2023/04/18 04:53:39;;;;;;;;;84.75;65.50;;;;;9.51;100.00;102013.75;5034133;28;47880;-70
2023/04/18 04:56:04;;;;;;;;;88.50;65.50;;;;;9.69;100.00;102017.84;4999323;28;45331;-71
2023/04/18 04:58:30;;;;;;;;;82.50;63.50;;;;;9.56;100.00;102011.59;5001335;28;45194;-70
2023/04/18 05:00:56;;;;;;;;;82.25;62.50;;;;;9.50;100.00;102007.44;5001332;28;45241;-70
2023/04/18 05:03:21;;;;;;;;;85.75;68.75;;;;;9.41;100.00;102004.56;5000892;28;45434;-70
2023/04/18 05:05:47;;;;;;;;;69.75;54.50;;;;;9.48;100.00;102017.56;4999372;28;45443;-71
2023/04/18 05:08:12;;;;;;;;;85.00;62.75;;;;;9.47;100.00;102014.97;5002870;28;45335;-70
2023/04/18 05:10:38;;;;;;;;;78.25;61.50;;;;;9.53;100.00;102025.38;5002826;28;45389;-70
2023/04/18 05:13:03;;;;;;;;;81.75;60.00;;;;;9.56;100.00;102017.88;5033883;28;47045;-70
2023/04/18 05:15:29;;;;;;;;;84.50;64.75;;;;;9.57;100.00;102018.75;5000359;28;45515;-69
2023/04/18 05:17:56;;;;;;;;;81.75;62.75;;;;;9.51;100.00;102016.47;5017142;28;45436;-69
2023/04/18 05:20:21;;;;;;;;;78.00;61.00;;;;;9.34;100.00;102002.28;5014511;28;45657;-69
2023/04/18 05:22:47;;;;;;;;;70.00;56.50;;;;;9.36;100.00;102008.44;5000918;28;45479;-69
2023/04/18 05:25:12;;;;;;;;;82.00;63.00;;;;;9.46;100.00;102007.78;5001288;28;45407;-69
2023/04/18 05:27:38;;;;;;;;;85.50;66.75;;;;;9.55;100.00;102008.00;5000997;28;45467;-68
2023/04/18 05:30:04;;;;;;;;;87.00;68.25;;;;;9.64;100.00;102017.34;5003069;28;45449;-70
2023/04/18 05:32:29;;;;;;;;;72.00;56.75;;;;;9.62;100.00;102012.00;5000370;28;46471;-69
2023/04/18 05:34:55;;;;;;;;;82.00;63.75;;;;;9.68;100.00;102016.13;5002082;28;45284;-68
2023/04/18 05:37:21;;;;;;;;;75.25;60.00;;;;;9.64;100.00;101993.75;4997743;28;45725;-68
2023/04/18 05:39:46;;;;;;;;;87.50;67.25;;;;;9.78;100.00;102003.63;5014442;28;45641;-70
2023/04/18 05:42:11;;;;;;;;;79.50;61.00;;;;;9.85;100.00;102015.75;4997956;28;45255;-69
2023/04/18 05:44:37;;;;;;;;;78.75;59.00;;;;;9.70;100.00;102020.47;5016025;28;45308;-70
2023/04/18 05:47:04;;;;;;;;;82.00;59.50;;;;;9.66;100.00;102013.50;4994460;28;45423;-70
2023/04/18 05:49:30;;;;;;;;;85.75;64.50;;;;;9.73;100.00;102009.38;5002151;28;45474;-70
2023/04/18 05:51:56;;;;;;;;;81.75;60.00;;;;;9.86;100.00;102032.91;5010913;28;48006;-70
2023/04/18 05:54:23;;;;;;;;;85.00;66.00;;;;;9.83;100.00;102031.28;5000981;28;45896;-70
2023/04/18 05:56:49;;;;;;;;;81.50;64.00;;;;;9.83;100.00;102019.56;5028843;28;45350;-70
2023/04/18 05:59:15;;;;;;;;;78.75;61.25;;;;;9.81;100.00;102026.94;5001625;28;45345;-69
2023/04/18 06:01:40;;;;;;;;;81.00;61.00;;;;;9.89;100.00;102016.38;4996293;28;45374;-69
2023/04/18 06:04:07;;;;;;;;;78.75;59.25;;;;;9.92;100.00;102019.75;4999734;28;45235;-69
2023/04/18 06:06:33;;;;;;;;;83.25;61.75;;;;;9.98;100.00;102019.28;4995313;28;45513;-69
2023/04/18 06:08:59;;;;;;;;;89.25;67.00;;;;;10.00;100.00;102024.63;5001680;28;45294;-70
2023/04/18 06:11:24;;;;;;;;;83.75;63.00;;;;;9.90;100.00;102031.69;4999483;28;45419;-70
2023/04/18 06:13:50;;;;;;;;;81.75;62.00;;;;;9.79;100.00;102010.75;5001273;28;45391;-70
2023/04/18 06:16:15;;;;;;;;;72.75;57.00;;;;;9.86;100.00;102025.63;4996960;28;45496;-71
2023/04/18 06:18:40;;;;;;;;;87.25;68.00;;;;;9.96;100.00;102032.09;5001068;28;45547;-70
2023/04/18 06:21:06;;;;;;;;;83.75;68.00;;;;;9.94;100.00;102019.63;4997552;28;45575;-71
2023/04/18 06:23:31;;;;;;;;;76.75;59.75;;;;;9.91;100.00;102018.00;5001044;28;45472;-70
2023/04/18 06:25:57;;;;;;;;;82.25;60.75;;;;;10.06;100.00;102026.88;5030046;28;45499;-72
2023/04/18 06:28:22;;;;;;;;;81.25;62.50;;;;;10.12;100.00;102024.56;5015397;28;45321;-73
2023/04/18 06:30:48;;;;;;;;;80.25;61.25;;;;;10.23;100.00;102015.63;5014596;28;47117;-72
2023/04/18 06:33:14;;;;;;;;;76.25;56.00;;;;;10.25;100.00;102013.69;5004511;28;45243;-72
2023/04/18 06:35:40;;;;;;;;;83.75;65.75;;;;;10.18;100.00;102015.13;5000667;28;45244;-72
2023/04/18 06:38:05;;;;;;;;;71.50;56.00;;;;;10.21;100.00;102014.03;5004493;28;45573;-72
2023/04/18 06:40:31;;;;;;;;;70.25;53.25;;;;;10.34;100.00;102020.25;5002469;28;45453;-72
2023/04/18 06:42:56;;;;;;;;;83.00;61.25;;;;;10.47;100.00;102026.50;5000510;28;45294;-72
2023/04/18 06:45:21;;;;;;;;;79.50;60.25;;;;;10.46;100.00;102012.03;5003549;28;45847;-72
2023/04/18 06:47:47;;;;;;;;;72.50;58.00;;;;;10.58;100.00;102001.25;5034534;28;45374;-72
2023/04/18 06:50:14;;;;;;;;;83.25;61.00;;;;;10.51;100.00;102014.44;5001560;28;45495;-72
2023/04/18 06:52:43;;;;;;;;;88.75;74.75;;;;;10.51;100.00;102014.44;4997314;28;45420;-71
2023/04/18 06:55:09;;;;;;;;;81.75;66.00;;;;;10.50;100.00;102026.28;5003000;28;45711;-71
2023/04/18 06:57:35;;;;;;;;;83.00;62.75;;;;;10.58;100.00;102006.66;4997917;28;45428;-71
2023/04/18 07:00:02;;;;;;;;;79.00;60.75;;;;;10.66;100.00;101998.81;5003709;28;45451;-72
2023/04/18 07:02:27;;;;;;;;;77.00;60.75;;;;;10.95;100.00;102013.72;4998111;28;45430;-73
2023/04/18 07:04:53;;;;;;;;;71.25;56.75;;;;;11.12;100.00;102010.50;5004198;28;45415;-72
2023/04/18 07:07:19;;;;;;;;;73.00;57.50;;;;;11.30;100.00;102005.47;5013497;28;45398;-72
2023/04/18 07:09:44;;;;;;;;;81.00;63.50;;;;;11.51;100.00;102005.59;5003927;28;46490;-72
2023/04/18 07:12:09;;;;;;;;;85.00;68.00;;;;;11.40;100.00;102006.44;5013488;28;45483;-72
2023/04/18 07:14:35;;;;;;;;;81.25;65.50;;;;;11.32;100.00;101990.75;5000576;28;45864;-72
2023/04/18 07:17:00;;;;;;;;;84.00;65.50;;;;;11.44;100.00;102013.41;5000271;28;45594;-72
2023/04/18 07:19:26;;;;;;;;;83.75;60.25;;;;;11.60;100.00;102010.31;5000495;28;46786;-73
2023/04/18 07:21:51;;;;;;;;;75.25;56.75;;;;;11.73;100.00;101996.56;4999641;28;47822;-72
2023/04/18 07:24:16;;;;;;;;;82.50;65.00;;;;;11.69;100.00;102012.25;5003137;28;45469;-72
2023/04/18 07:26:42;;;;;;;;;79.25;62.00;;;;;11.63;100.00;102008.19;5001810;28;45905;-71
2023/04/18 07:29:07;;;;;;;;;77.00;60.00;;;;;11.78;100.00;102010.69;5003443;28;46143;-71
2023/04/18 07:31:33;;;;;;;;;83.75;66.50;;;;;11.61;100.00;102015.63;4998944;28;45430;-72
2023/04/18 07:33:58;;;;;;;;;83.00;68.50;;;;;11.61;100.00;102007.47;4999447;28;45169;-72
2023/04/18 07:36:25;;;;;;;;;79.25;60.25;;;;;11.77;100.00;102017.97;4999685;28;45552;-71
2023/04/18 07:38:50;;;;;;;;;85.25;69.50;;;;;11.94;100.00;102016.59;4996964;28;48427;-71
2023/04/18 07:41:16;;;;;;;;;80.25;60.00;;;;;11.96;100.00;102001.00;5001164;28;45358;-71
2023/04/18 07:43:43;;;;;;;;;80.00;59.25;;;;;11.98;100.00;101990.88;5035220;28;45419;-73
2023/04/18 07:46:09;;;;;;;;;79.25;61.75;;;;;11.91;100.00;101984.16;4998297;28;45626;-72
2023/04/18 07:48:34;;;;;;;;;74.50;58.00;;;;;12.11;100.00;101997.00;5003288;28;45496;-70
2023/04/18 07:51:00;;;;;;;;;80.75;57.75;;;;;12.56;100.00;101996.84;5000294;28;45376;-73
2023/04/18 07:53:25;;;;;;;;;82.00;65.00;;;;;12.76;100.00;101987.81;4999750;28;45383;-71
2023/04/18 07:55:50;;;;;;;;;73.50;56.75;;;;;12.84;100.00;101996.22;5032219;28;45445;-71
2023/04/18 07:58:18;;;;;;;;;77.25;61.00;;;;;13.17;100.00;101984.25;5032102;28;46976;-72
2023/04/18 08:00:44;;;;;;;;;76.25;59.75;;;;;13.04;100.00;101981.69;5000924;28;45339;-72
2023/04/18 08:03:10;;;;;;;;;80.00;62.00;;;;;13.19;100.00;101988.56;5003372;28;45316;-71
2023/04/18 08:05:37;;;;;;;;;74.75;59.00;;;;;13.36;100.00;101975.31;5002291;28;45269;-71
2023/04/18 08:08:02;;;;;;;;;80.75;67.75;;;;;13.04;100.00;101964.47;5003444;28;45509;-72
2023/04/18 08:10:28;;;;;;;;;77.50;61.25;;;;;13.06;100.00;101974.25;5004889;28;45332;-72
2023/04/18 08:12:53;;;;;;;;;75.75;56.00;;;;;13.34;100.00;101980.03;5003339;28;45468;-72
2023/04/18 08:15:18;;;;;;;;;75.50;59.00;;;;;13.37;100.00;101969.69;5017051;28;45513;-73
2023/04/18 08:17:47;;;;;;;;;73.00;56.25;;;;;13.30;100.00;101971.22;5001372;28;46443;-72
2023/04/18 08:20:13;;;;;;;;;74.50;56.25;;;;;13.45;100.00;101969.88;5001991;28;45331;-71
2023/04/18 08:22:38;;;;;;;;;78.00;57.75;;;;;13.79;100.00;101961.38;4999859;28;45386;-72
2023/04/18 08:25:04;;;;;;;;;75.25;57.75;;;;;13.64;100.00;101971.81;5004349;28;45280;-72
2023/04/18 08:27:30;;;;;;;;;72.25;57.25;;;;;13.80;100.00;101974.03;4994299;28;46751;-73
2023/04/18 08:29:55;;;;;;;;;73.00;56.75;;;;;13.88;100.00;101950.44;5003343;28;45466;-72
2023/04/18 08:32:21;;;;;;;;;76.50;57.50;;;;;14.10;100.00;101970.34;5008646;28;45333;-72
2023/04/18 08:34:46;;;;;;;;;67.25;54.00;;;;;14.48;100.00;101967.66;5003979;28;45374;-72
2023/04/18 08:37:13;;;;;;;;;70.25;54.25;;;;;15.03;100.00;101955.06;5014688;28;47585;-71
2023/04/18 08:39:38;;;;;;;;;67.50;53.75;;;;;14.85;100.00;101945.03;5003332;28;45486;-72
2023/04/18 08:42:05;;;;;;;;;61.50;46.00;;;;;14.89;100.00;101947.34;4997587;28;45669;-71
2023/04/18 08:44:31;;;;;;;;;72.50;56.50;;;;;15.00;100.00;101959.97;5017697;28;45533;-71
2023/04/18 08:47:00;;;;;;;;;70.75;55.25;;;;;15.14;100.00;101945.81;4995544;28;45652;-72
2023/04/18 08:49:25;;;;;;;;;68.25;53.25;;;;;15.25;100.00;101953.00;5002794;28;45446;-72
2023/04/18 08:51:51;;;;;;;;;67.75;51.75;;;;;15.42;100.00;101939.34;4999056;28;45388;-71
2023/04/18 08:54:29;;;;;;;;;70.75;55.75;;;;;15.51;100.00;101932.13;5017909;28;45458;-71
2023/04/18 08:57:09;;;;;;;;;71.25;55.25;;;;;15.83;100.00;101942.66;4998528;28;46350;-72
2023/04/18 08:59:35;;;;;;;;;70.50;56.75;;;;;15.92;100.00;101947.22;5007017;28;45315;-71
2023/04/18 09:02:02;;;;;;;;;73.25;59.25;;;;;15.80;100.00;101935.59;4998291;28;45234;-70
2023/04/18 09:04:31;;;;;;;;;70.25;54.75;;;;;15.91;100.00;101934.53;5003031;28;45452;-71
2023/04/18 09:06:56;;;;;;;;;64.00;51.00;;;;;16.24;100.00;101941.19;4996140;28;46488;-71
2023/04/18 09:09:26;;;;;;;;;62.75;49.50;;;;;16.19;100.00;101949.91;5002986;28;45370;-71
2023/04/18 09:12:04;;;;;;;;;65.25;52.00;;;;;16.13;100.00;101935.97;5029283;28;45493;-71
2023/04/18 09:14:31;;;;;;;;;65.00;51.75;;;;;16.07;100.00;101929.19;5002744;28;45422;-73
2023/04/18 09:16:57;;;;;;;;;63.00;51.50;;;;;16.31;100.00;101936.81;4998262;28;46515;-71
2023/04/18 09:19:22;;;;;;;;;66.25;50.75;;;;;16.69;100.00;101939.25;5001340;28;45515;-72
2023/04/18 09:21:57;;;;;;;;;60.25;48.00;;;;;16.81;100.00;101934.34;5014373;28;45371;-71
2023/04/18 09:24:25;;;;;;;;;64.00;51.25;;;;;17.20;100.00;101926.56;5003111;28;45475;-71
2023/04/18 09:26:52;;;;;;;;;63.25;49.25;;;;;17.83;100.00;101920.66;5013946;28;45635;-71
2023/04/18 09:29:21;;;;;;;;;62.25;47.75;;;;;17.18;100.00;101925.84;5017521;28;45355;-72
2023/04/18 09:32:00;;;;;;;;;61.75;48.50;;;;;17.31;100.00;101917.19;5011123;28;45411;-72
2023/04/18 09:34:26;;;;;;;;;55.75;44.25;;;;;17.72;100.00;101912.75;5001983;28;45259;-71
2023/04/18 09:37:11;;;;;;;;;64.25;51.25;;;;;18.21;100.00;101916.47;4995279;28;45698;-71
2023/04/18 09:39:38;;;;;;;;;65.25;52.75;;;;;17.96;100.00;101904.56;4990608;28;45198;-72
2023/04/18 09:42:04;;;;;;;;;68.00;53.75;;;;;17.76;100.00;101893.00;5011364;28;45368;-72
2023/04/18 09:44:30;;;;;;;;;68.75;56.75;;;;;17.70;100.00;101907.41;5001392;28;45427;-72
2023/04/18 09:46:55;;;;;;;;;59.50;44.50;;;;;18.37;100.00;101897.22;4990137;28;45678;-72
2023/04/18 09:49:21;;;;;;;;;60.50;48.00;;;;;18.37;100.00;101888.09;5002110;28;45327;-73
2023/04/18 09:51:50;;;;;;;;;64.25;50.00;;;;;18.58;100.00;101900.34;5010021;28;45530;-72
2023/04/18 09:54:17;;;;;;;;;64.75;52.00;;;;;19.00;100.00;101893.75;5014598;28;45446;-71
2023/04/18 09:56:43;;;;;;;;;67.75;52.50;;;;;19.48;100.00;101880.91;4991125;28;45434;-72
2023/04/18 09:59:10;;;;;;;;;65.50;50.25;;;;;19.27;100.00;101892.50;5001863;28;45348;-72
2023/04/18 10:01:36;;;;;;;;;64.00;51.25;;;;;19.11;100.00;101879.63;5011063;28;45538;-72
2023/04/18 10:04:05;;;;;;;;;64.25;51.50;;;;;18.81;100.00;101877.63;5002619;28;45453;-73
2023/04/18 10:06:33;;;;;;;;;56.50;46.00;;;;;18.71;100.00;101871.44;4999510;28;45231;-72
2023/04/18 10:08:59;;;;;;;;;67.75;54.25;;;;;18.57;100.00;101871.09;5037538;28;45233;-72
2023/04/18 10:11:25;;;;;;;;;62.00;48.25;;;;;18.20;100.00;101866.09;4998813;28;45509;-72
2023/04/18 10:13:57;;;;;;;;;60.00;46.75;;;;;18.28;100.00;101873.47;5018541;28;45470;-71
2023/04/18 10:16:24;;;;;;;;;57.00;46.00;;;;;19.18;100.00;101874.25;5011420;28;47467;-71
2023/04/18 10:18:50;;;;;;;;;62.50;48.50;;;;;18.91;100.00;101870.03;5008600;28;45477;-70
2023/04/18 10:21:16;;;;;;;;;62.75;49.50;;;;;19.78;100.00;101855.22;5003711;28;45444;-70
2023/04/18 10:23:41;;;;;;;;;62.25;47.00;;;;;20.21;100.00;101848.19;5007122;28;45629;-72
2023/04/18 10:26:08;;;;;;;;;64.25;52.75;;;;;20.09;100.00;101856.03;5002957;28;45382;-71
2023/04/18 10:28:55;;;;;;;;;57.50;48.25;;;;;18.54;100.00;101852.16;5004927;28;45435;-73
2023/04/18 10:31:37;;;;;;;;;60.75;49.50;;;;;18.84;100.00;101855.25;5003298;28;45379;-72
2023/04/18 10:34:05;;;;;;;;;63.25;48.50;;;;;18.31;100.00;101853.91;5004047;28;45429;-72
2023/04/18 10:36:31;;;;;;;;;60.50;48.75;;;;;18.90;100.00;101838.88;5000535;28;46374;-72
2023/04/18 10:39:18;;;;;;;;;53.75;43.75;;;;;18.67;100.00;101838.75;5004999;28;45414;-73
2023/04/18 10:41:48;;;;;;;;;63.25;50.75;;;;;18.50;100.00;101848.03;5014239;28;45463;-71
2023/04/18 10:44:18;;;;;;;;;59.50;46.25;;;;;18.78;100.00;101844.91;5004800;28;45721;-70
2023/04/18 10:46:47;;;;;;;;;56.50;45.25;;;;;18.98;100.00;101832.50;5001036;28;46547;-71
2023/04/18 10:49:24;;;;;;;;;59.75;48.25;;;;;18.93;100.00;101841.25;4996144;28;45380;-71
2023/04/18 10:51:51;;;;;;;;;68.75;55.00;;;;;19.03;100.00;101816.28;4998357;28;45397;-72
2023/04/18 10:54:41;;;;;;;;;59.00;45.75;;;;;18.83;100.00;101828.75;5005206;28;45455;-71
2023/04/18 10:57:07;;;;;;;;;65.75;53.75;;;;;18.38;100.00;101813.66;4998122;28;45469;-71
2023/04/18 10:59:37;;;;;;;;;57.00;46.50;;;;;18.11;100.00;101798.38;5004166;28;45408;-72
2023/04/18 11:02:08;;;;;;;;;53.00;44.75;;;;;18.07;100.00;101829.13;5010050;28;45508;-72